sensor_id;sensor_type;location;lat;lon;timestamp;P1;durP1;ratioP1;P2;durP2;ratioP2
8480;SDS011;4277;51.354;6.740;2022-10-16T00:00:27;8.13;;;4.10;;
8480;SDS011;4277;51.354;6.740;2022-10-16T00:02:52;6.00;;;4.13;;
8480;SDS011;4277;51.354;6.740;2022-10-16T00:05:18;5.77;;;3.70;;
8480;SDS011;4277;51.354;6.740;2022-10-16T00:07:44;6.70;;;4.20;;
8480;SDS011;4277;51.354;6.740;2022-10-16T00:10:09;5.90;;;4.43;;
8480;SDS011;4277;51.354;6.740;2022-10-16T00:12:35;7.53;;;4.23;;
8480;SDS011;4277;51.354;6.740;2022-10-16T00:15:00;8.40;;;4.50;;
8480;SDS011;4277;51.354;6.740;2022-10-16T00:17:25;8.33;;;5.20;;
8480;SDS011;4277;51.354;6.740;2022-10-16T00:19:51;5.67;;;5.10;;
8480;SDS011;4277;51.354;6.740;2022-10-16T00:22:16;8.03;;;5.27;;
8480;SDS011;4277;51.354;6.740;2022-10-16T00:24:42;9.77;;;5.57;;
8480;SDS011;4277;51.354;6.740;2022-10-16T00:27:07;7.60;;;5.87;;
8480;SDS011;4277;51.354;6.740;2022-10-16T00:29:33;6.80;;;5.17;;
8480;SDS011;4277;51.354;6.740;2022-10-16T00:31:59;9.27;;;6.13;;
8480;SDS011;4277;51.354;6.740;2022-10-16T00:34:24;8.60;;;6.57;;
8480;SDS011;4277;51.354;6.740;2022-10-16T00:36:50;9.93;;;7.00;;
8480;SDS011;4277;51.354;6.740;2022-10-16T00:39:15;8.87;;;6.70;;
8480;SDS011;4277;51.354;6.740;2022-10-16T00:41:41;10.40;;;8.00;;
8480;SDS011;4277;51.354;6.740;2022-10-16T00:47:10;10.17;;;7.93;;
8480;SDS011;4277;51.354;6.740;2022-10-16T00:49:40;11.83;;;7.77;;
8480;SDS011;4277;51.354;6.740;2022-10-16T00:52:06;10.37;;;9.27;;
8480;SDS011;4277;51.354;6.740;2022-10-16T00:54:31;11.97;;;9.17;;
8480;SDS011;4277;51.354;6.740;2022-10-16T00:56:59;10.13;;;8.80;;
8480;SDS011;4277;51.354;6.740;2022-10-16T00:59:27;14.37;;;9.47;;
8480;SDS011;4277;51.354;6.740;2022-10-16T01:02:05;13.07;;;9.63;;
8480;SDS011;4277;51.354;6.740;2022-10-16T01:04:37;10.00;;;8.70;;
8480;SDS011;4277;51.354;6.740;2022-10-16T01:07:17;10.80;;;8.70;;
8480;SDS011;4277;51.354;6.740;2022-10-16T01:09:57;10.77;;;7.93;;
8480;SDS011;4277;51.354;6.740;2022-10-16T01:15:15;10.40;;;6.93;;
8480;SDS011;4277;51.354;6.740;2022-10-16T01:17:51;8.70;;;6.53;;
8480;SDS011;4277;51.354;6.740;2022-10-16T01:20:26;7.63;;;6.27;;
8480;SDS011;4277;51.354;6.740;2022-10-16T01:28:19;7.00;;;5.97;;
8480;SDS011;4277;51.354;6.740;2022-10-16T01:30:49;10.77;;;7.37;;
8480;SDS011;4277;51.354;6.740;2022-10-16T01:33:21;11.80;;;9.50;;
8480;SDS011;4277;51.354;6.740;2022-10-16T01:35:54;11.47;;;9.77;;
8480;SDS011;4277;51.354;6.740;2022-10-16T01:38:25;13.27;;;11.00;;
8480;SDS011;4277;51.354;6.740;2022-10-16T01:40:59;15.13;;;10.53;;
8480;SDS011;4277;51.354;6.740;2022-10-16T01:43:31;14.53;;;11.60;;
8480;SDS011;4277;51.354;6.740;2022-10-16T01:45:59;12.90;;;10.73;;
8480;SDS011;4277;51.354;6.740;2022-10-16T01:48:26;10.67;;;9.13;;
8480;SDS011;4277;51.354;6.740;2022-10-16T01:51:12;11.80;;;8.40;;
8480;SDS011;4277;51.354;6.740;2022-10-16T01:53:38;8.57;;;7.67;;
8480;SDS011;4277;51.354;6.740;2022-10-16T01:56:08;11.07;;;7.67;;
8480;SDS011;4277;51.354;6.740;2022-10-16T01:58:41;7.83;;;5.47;;
8480;SDS011;4277;51.354;6.740;2022-10-16T02:01:15;7.07;;;4.60;;
8480;SDS011;4277;51.354;6.740;2022-10-16T02:03:43;6.73;;;3.67;;
8480;SDS011;4277;51.354;6.740;2022-10-16T02:06:11;4.53;;;3.10;;
8480;SDS011;4277;51.354;6.740;2022-10-16T02:08:37;4.80;;;2.70;;
8480;SDS011;4277;51.354;6.740;2022-10-16T02:11:05;3.43;;;2.80;;
8480;SDS011;4277;51.354;6.740;2022-10-16T02:13:36;3.90;;;2.23;;
8480;SDS011;4277;51.354;6.740;2022-10-16T02:16:12;5.43;;;2.60;;
8480;SDS011;4277;51.354;6.740;2022-10-16T02:18:39;2.13;;;1.90;;
8480;SDS011;4277;51.354;6.740;2022-10-16T02:21:11;6.47;;;2.13;;
8480;SDS011;4277;51.354;6.740;2022-10-16T02:29:14;3.00;;;1.93;;
8480;SDS011;4277;51.354;6.740;2022-10-16T02:31:46;2.33;;;2.10;;
8480;SDS011;4277;51.354;6.740;2022-10-16T02:34:14;3.47;;;2.00;;
8480;SDS011;4277;51.354;6.740;2022-10-16T02:36:43;2.73;;;1.90;;
8480;SDS011;4277;51.354;6.740;2022-10-16T02:39:10;4.53;;;1.80;;
8480;SDS011;4277;51.354;6.740;2022-10-16T02:41:37;2.37;;;1.70;;
8480;SDS011;4277;51.354;6.740;2022-10-16T02:44:03;3.70;;;1.80;;
8480;SDS011;4277;51.354;6.740;2022-10-16T02:46:28;5.57;;;1.70;;
8480;SDS011;4277;51.354;6.740;2022-10-16T02:48:54;3.03;;;1.80;;
8480;SDS011;4277;51.354;6.740;2022-10-16T02:51:19;2.10;;;1.77;;
8480;SDS011;4277;51.354;6.740;2022-10-16T02:53:45;3.87;;;1.90;;
8480;SDS011;4277;51.354;6.740;2022-10-16T02:56:10;2.10;;;1.80;;
8480;SDS011;4277;51.354;6.740;2022-10-16T02:58:36;2.50;;;1.87;;
8480;SDS011;4277;51.354;6.740;2022-10-16T03:01:02;2.47;;;2.00;;
8480;SDS011;4277;51.354;6.740;2022-10-16T03:03:27;3.77;;;2.10;;
8480;SDS011;4277;51.354;6.740;2022-10-16T03:05:53;4.90;;;2.03;;
8480;SDS011;4277;51.354;6.740;2022-10-16T03:08:18;2.63;;;2.00;;
8480;SDS011;4277;51.354;6.740;2022-10-16T03:10:48;2.70;;;1.90;;
8480;SDS011;4277;51.354;6.740;2022-10-16T03:13:14;4.60;;;1.80;;
8480;SDS011;4277;51.354;6.740;2022-10-16T03:15:40;3.57;;;1.90;;
8480;SDS011;4277;51.354;6.740;2022-10-16T03:18:05;3.60;;;1.60;;
8480;SDS011;4277;51.354;6.740;2022-10-16T03:20:31;2.90;;;1.73;;
8480;SDS011;4277;51.354;6.740;2022-10-16T03:22:56;2.20;;;1.77;;
8480;SDS011;4277;51.354;6.740;2022-10-16T03:25:22;3.27;;;1.70;;
8480;SDS011;4277;51.354;6.740;2022-10-16T03:27:47;2.87;;;1.80;;
8480;SDS011;4277;51.354;6.740;2022-10-16T03:30:16;4.23;;;1.80;;
8480;SDS011;4277;51.354;6.740;2022-10-16T03:32:43;4.90;;;1.80;;
8480;SDS011;4277;51.354;6.740;2022-10-16T03:35:09;1.93;;;1.73;;
8480;SDS011;4277;51.354;6.740;2022-10-16T03:37:35;2.73;;;1.53;;
8480;SDS011;4277;51.354;6.740;2022-10-16T03:40:01;4.03;;;1.63;;
8480;SDS011;4277;51.354;6.740;2022-10-16T03:42:28;2.27;;;1.50;;
8480;SDS011;4277;51.354;6.740;2022-10-16T03:44:53;2.83;;;1.43;;
8480;SDS011;4277;51.354;6.740;2022-10-16T03:47:19;2.00;;;1.80;;
8480;SDS011;4277;51.354;6.740;2022-10-16T03:49:46;2.20;;;1.60;;
8480;SDS011;4277;51.354;6.740;2022-10-16T03:52:13;4.93;;;1.70;;
8480;SDS011;4277;51.354;6.740;2022-10-16T03:54:38;3.30;;;1.60;;
8480;SDS011;4277;51.354;6.740;2022-10-16T03:57:04;4.23;;;1.93;;
8480;SDS011;4277;51.354;6.740;2022-10-16T03:59:29;2.70;;;1.50;;
8480;SDS011;4277;51.354;6.740;2022-10-16T04:01:55;2.30;;;1.70;;
8480;SDS011;4277;51.354;6.740;2022-10-16T04:04:20;1.47;;;1.37;;
8480;SDS011;4277;51.354;6.740;2022-10-16T04:06:46;3.10;;;1.30;;
8480;SDS011;4277;51.354;6.740;2022-10-16T04:09:11;2.67;;;1.40;;
8480;SDS011;4277;51.354;6.740;2022-10-16T04:11:37;2.00;;;1.53;;
8480;SDS011;4277;51.354;6.740;2022-10-16T04:14:03;1.63;;;1.53;;
8480;SDS011;4277;51.354;6.740;2022-10-16T04:16:29;3.23;;;1.60;;
8480;SDS011;4277;51.354;6.740;2022-10-16T04:18:55;2.70;;;1.47;;
8480;SDS011;4277;51.354;6.740;2022-10-16T04:21:20;1.60;;;1.50;;
8480;SDS011;4277;51.354;6.740;2022-10-16T04:23:46;2.53;;;1.40;;
8480;SDS011;4277;51.354;6.740;2022-10-16T04:26:11;1.90;;;1.70;;
8480;SDS011;4277;51.354;6.740;2022-10-16T04:28:37;1.90;;;1.60;;
8480;SDS011;4277;51.354;6.740;2022-10-16T04:31:06;4.87;;;1.50;;
8480;SDS011;4277;51.354;6.740;2022-10-16T04:33:32;4.97;;;1.70;;
8480;SDS011;4277;51.354;6.740;2022-10-16T04:36:01;4.37;;;1.70;;
8480;SDS011;4277;51.354;6.740;2022-10-16T04:38:27;2.60;;;1.67;;
8480;SDS011;4277;51.354;6.740;2022-10-16T04:40:54;1.60;;;1.50;;
8480;SDS011;4277;51.354;6.740;2022-10-16T04:43:19;2.80;;;1.50;;
8480;SDS011;4277;51.354;6.740;2022-10-16T04:45:45;3.37;;;1.70;;
8480;SDS011;4277;51.354;6.740;2022-10-16T04:48:11;4.57;;;1.60;;
8480;SDS011;4277;51.354;6.740;2022-10-16T04:50:36;1.70;;;1.60;;
8480;SDS011;4277;51.354;6.740;2022-10-16T04:53:02;1.60;;;1.50;;
8480;SDS011;4277;51.354;6.740;2022-10-16T04:55:27;3.13;;;1.60;;
8480;SDS011;4277;51.354;6.740;2022-10-16T04:57:53;1.97;;;1.60;;
8480;SDS011;4277;51.354;6.740;2022-10-16T05:00:19;4.70;;;1.90;;
8480;SDS011;4277;51.354;6.740;2022-10-16T05:02:44;2.00;;;1.50;;
8480;SDS011;4277;51.354;6.740;2022-10-16T05:05:10;2.33;;;1.50;;
8480;SDS011;4277;51.354;6.740;2022-10-16T05:07:35;3.33;;;1.33;;
8480;SDS011;4277;51.354;6.740;2022-10-16T05:10:01;2.10;;;1.50;;
8480;SDS011;4277;51.354;6.740;2022-10-16T05:12:26;1.97;;;1.60;;
8480;SDS011;4277;51.354;6.740;2022-10-16T05:14:52;3.20;;;1.67;;
8480;SDS011;4277;51.354;6.740;2022-10-16T05:17:17;3.13;;;1.50;;
8480;SDS011;4277;51.354;6.740;2022-10-16T05:19:43;3.20;;;1.47;;
8480;SDS011;4277;51.354;6.740;2022-10-16T05:22:08;3.07;;;1.70;;
8480;SDS011;4277;51.354;6.740;2022-10-16T05:24:34;2.00;;;1.30;;
8480;SDS011;4277;51.354;6.740;2022-10-16T05:26:59;2.23;;;1.80;;
8480;SDS011;4277;51.354;6.740;2022-10-16T05:29:25;1.70;;;1.43;;
8480;SDS011;4277;51.354;6.740;2022-10-16T05:31:51;4.83;;;1.43;;
8480;SDS011;4277;51.354;6.740;2022-10-16T05:34:17;4.77;;;1.67;;
8480;SDS011;4277;51.354;6.740;2022-10-16T05:36:44;3.33;;;1.70;;
8480;SDS011;4277;51.354;6.740;2022-10-16T05:39:10;2.53;;;1.60;;
8480;SDS011;4277;51.354;6.740;2022-10-16T05:41:36;2.97;;;1.60;;
8480;SDS011;4277;51.354;6.740;2022-10-16T05:44:03;1.77;;;1.60;;
8480;SDS011;4277;51.354;6.740;2022-10-16T05:46:30;2.77;;;2.00;;
8480;SDS011;4277;51.354;6.740;2022-10-16T05:48:56;1.93;;;1.50;;
8480;SDS011;4277;51.354;6.740;2022-10-16T05:51:21;5.53;;;1.70;;
8480;SDS011;4277;51.354;6.740;2022-10-16T05:53:47;2.33;;;1.70;;
8480;SDS011;4277;51.354;6.740;2022-10-16T05:56:12;2.40;;;1.50;;
8480;SDS011;4277;51.354;6.740;2022-10-16T05:58:38;2.63;;;1.53;;
8480;SDS011;4277;51.354;6.740;2022-10-16T06:01:12;1.60;;;1.50;;
8480;SDS011;4277;51.354;6.740;2022-10-16T06:03:40;1.90;;;1.70;;
8480;SDS011;4277;51.354;6.740;2022-10-16T06:06:12;2.93;;;1.60;;
8480;SDS011;4277;51.354;6.740;2022-10-16T06:08:40;2.70;;;1.80;;
8480;SDS011;4277;51.354;6.740;2022-10-16T06:11:08;1.87;;;1.70;;
8480;SDS011;4277;51.354;6.740;2022-10-16T06:13:35;4.53;;;1.80;;
8480;SDS011;4277;51.354;6.740;2022-10-16T06:16:01;1.93;;;1.60;;
8480;SDS011;4277;51.354;6.740;2022-10-16T06:18:28;1.83;;;1.73;;
8480;SDS011;4277;51.354;6.740;2022-10-16T06:20:54;1.97;;;1.60;;
8480;SDS011;4277;51.354;6.740;2022-10-16T06:23:21;2.67;;;1.90;;
8480;SDS011;4277;51.354;6.740;2022-10-16T06:25:47;3.30;;;1.73;;
8480;SDS011;4277;51.354;6.740;2022-10-16T06:28:13;2.47;;;2.00;;
8480;SDS011;4277;51.354;6.740;2022-10-16T06:30:39;3.23;;;1.90;;
8480;SDS011;4277;51.354;6.740;2022-10-16T06:33:05;3.17;;;1.70;;
8480;SDS011;4277;51.354;6.740;2022-10-16T06:35:31;3.10;;;1.77;;
8480;SDS011;4277;51.354;6.740;2022-10-16T06:37:57;2.80;;;1.80;;
8480;SDS011;4277;51.354;6.740;2022-10-16T06:40:22;3.03;;;1.60;;
8480;SDS011;4277;51.354;6.740;2022-10-16T06:42:48;3.47;;;1.90;;
8480;SDS011;4277;51.354;6.740;2022-10-16T06:45:14;3.23;;;1.73;;
8480;SDS011;4277;51.354;6.740;2022-10-16T06:47:39;1.90;;;1.60;;
8480;SDS011;4277;51.354;6.740;2022-10-16T06:50:05;3.23;;;2.10;;
8480;SDS011;4277;51.354;6.740;2022-10-16T06:52:34;2.63;;;1.90;;
8480;SDS011;4277;51.354;6.740;2022-10-16T06:54:59;1.70;;;1.50;;
8480;SDS011;4277;51.354;6.740;2022-10-16T06:57:25;4.77;;;1.70;;
8480;SDS011;4277;51.354;6.740;2022-10-16T06:59:51;2.80;;;1.97;;
8480;SDS011;4277;51.354;6.740;2022-10-16T07:02:16;3.17;;;1.60;;
8480;SDS011;4277;51.354;6.740;2022-10-16T07:04:42;2.13;;;1.90;;
8480;SDS011;4277;51.354;6.740;2022-10-16T07:07:07;3.90;;;2.00;;
8480;SDS011;4277;51.354;6.740;2022-10-16T07:09:33;2.30;;;1.80;;
8480;SDS011;4277;51.354;6.740;2022-10-16T07:11:58;5.60;;;1.80;;
8480;SDS011;4277;51.354;6.740;2022-10-16T07:14:24;3.93;;;2.10;;
8480;SDS011;4277;51.354;6.740;2022-10-16T07:16:50;3.63;;;1.90;;
8480;SDS011;4277;51.354;6.740;2022-10-16T07:19:15;2.57;;;1.80;;
8480;SDS011;4277;51.354;6.740;2022-10-16T07:21:42;2.00;;;1.80;;
8480;SDS011;4277;51.354;6.740;2022-10-16T07:24:11;5.00;;;2.07;;
8480;SDS011;4277;51.354;6.740;2022-10-16T07:26:38;3.03;;;2.03;;
8480;SDS011;4277;51.354;6.740;2022-10-16T07:29:04;2.33;;;2.10;;
8480;SDS011;4277;51.354;6.740;2022-10-16T07:31:38;3.90;;;2.00;;
8480;SDS011;4277;51.354;6.740;2022-10-16T07:34:04;2.53;;;1.70;;
8480;SDS011;4277;51.354;6.740;2022-10-16T07:36:29;2.20;;;1.80;;
8480;SDS011;4277;51.354;6.740;2022-10-16T07:38:55;2.60;;;1.80;;
8480;SDS011;4277;51.354;6.740;2022-10-16T07:41:21;1.80;;;1.70;;
8480;SDS011;4277;51.354;6.740;2022-10-16T07:43:47;4.63;;;2.00;;
8480;SDS011;4277;51.354;6.740;2022-10-16T07:46:14;3.87;;;1.80;;
8480;SDS011;4277;51.354;6.740;2022-10-16T07:48:40;2.27;;;1.77;;
8480;SDS011;4277;51.354;6.740;2022-10-16T07:51:06;2.60;;;1.83;;
8480;SDS011;4277;51.354;6.740;2022-10-16T07:53:32;2.07;;;1.83;;
8480;SDS011;4277;51.354;6.740;2022-10-16T07:56:03;2.13;;;1.87;;
8480;SDS011;4277;51.354;6.740;2022-10-16T07:58:31;5.73;;;1.70;;
8480;SDS011;4277;51.354;6.740;2022-10-16T08:00:58;4.73;;;1.77;;
8480;SDS011;4277;51.354;6.740;2022-10-16T08:03:24;2.57;;;1.70;;
8480;SDS011;4277;51.354;6.740;2022-10-16T08:05:50;3.03;;;1.73;;
8480;SDS011;4277;51.354;6.740;2022-10-16T08:08:16;3.77;;;1.70;;
8480;SDS011;4277;51.354;6.740;2022-10-16T08:10:43;2.90;;;1.70;;
8480;SDS011;4277;51.354;6.740;2022-10-16T08:13:09;3.23;;;1.53;;
8480;SDS011;4277;51.354;6.740;2022-10-16T08:15:35;2.17;;;1.50;;
8480;SDS011;4277;51.354;6.740;2022-10-16T08:18:01;3.00;;;1.70;;
8480;SDS011;4277;51.354;6.740;2022-10-16T08:20:29;4.33;;;1.30;;
8480;SDS011;4277;51.354;6.740;2022-10-16T08:22:55;2.43;;;1.47;;
8480;SDS011;4277;51.354;6.740;2022-10-16T08:25:22;3.67;;;1.60;;
8480;SDS011;4277;51.354;6.740;2022-10-16T08:27:48;3.57;;;1.50;;
8480;SDS011;4277;51.354;6.740;2022-10-16T08:30:14;2.07;;;1.30;;
8480;SDS011;4277;51.354;6.740;2022-10-16T08:32:40;4.67;;;1.40;;
8480;SDS011;4277;51.354;6.740;2022-10-16T08:35:07;2.57;;;1.20;;
8480;SDS011;4277;51.354;6.740;2022-10-16T08:37:34;6.50;;;1.40;;
8480;SDS011;4277;51.354;6.740;2022-10-16T08:40:00;3.83;;;1.30;;
8480;SDS011;4277;51.354;6.740;2022-10-16T08:47:57;2.43;;;1.27;;
8480;SDS011;4277;51.354;6.740;2022-10-16T08:50:32;2.10;;;1.00;;
8480;SDS011;4277;51.354;6.740;2022-10-16T08:53:01;2.70;;;1.40;;
8480;SDS011;4277;51.354;6.740;2022-10-16T08:55:31;1.60;;;1.17;;
8480;SDS011;4277;51.354;6.740;2022-10-16T08:58:15;3.40;;;1.40;;
8480;SDS011;4277;51.354;6.740;2022-10-16T09:00:44;3.80;;;1.40;;
8480;SDS011;4277;51.354;6.740;2022-10-16T09:03:24;4.30;;;1.67;;
8480;SDS011;4277;51.354;6.740;2022-10-16T09:11:40;3.87;;;1.27;;
8480;SDS011;4277;51.354;6.740;2022-10-16T09:19:54;5.83;;;1.20;;
8480;SDS011;4277;51.354;6.740;2022-10-16T09:22:27;2.10;;;1.20;;
8480;SDS011;4277;51.354;6.740;2022-10-16T09:24:58;4.00;;;1.40;;
8480;SDS011;4277;51.354;6.740;2022-10-16T09:27:26;1.93;;;1.03;;
8480;SDS011;4277;51.354;6.740;2022-10-16T09:29:51;3.03;;;1.10;;
8480;SDS011;4277;51.354;6.740;2022-10-16T09:32:18;1.33;;;1.10;;
8480;SDS011;4277;51.354;6.740;2022-10-16T09:34:47;2.77;;;1.00;;
8480;SDS011;4277;51.354;6.740;2022-10-16T09:37:20;3.20;;;1.23;;
8480;SDS011;4277;51.354;6.740;2022-10-16T09:39:54;1.60;;;1.00;;
8480;SDS011;4277;51.354;6.740;2022-10-16T09:42:21;3.07;;;0.77;;
8480;SDS011;4277;51.354;6.740;2022-10-16T09:44:57;2.97;;;1.00;;
8480;SDS011;4277;51.354;6.740;2022-10-16T09:47:23;3.53;;;0.87;;
8480;SDS011;4277;51.354;6.740;2022-10-16T09:49:54;2.83;;;0.97;;
8480;SDS011;4277;51.354;6.740;2022-10-16T09:52:27;4.53;;;0.90;;
8480;SDS011;4277;51.354;6.740;2022-10-16T09:54:57;2.87;;;0.97;;
8480;SDS011;4277;51.354;6.740;2022-10-16T09:57:37;2.43;;;0.60;;
8480;SDS011;4277;51.354;6.740;2022-10-16T10:00:15;2.83;;;0.80;;
8480;SDS011;4277;51.354;6.740;2022-10-16T10:02:42;3.37;;;0.87;;
8480;SDS011;4277;51.354;6.740;2022-10-16T10:05:17;1.70;;;0.70;;
8480;SDS011;4277;51.354;6.740;2022-10-16T10:07:52;3.43;;;0.83;;
8480;SDS011;4277;51.354;6.740;2022-10-16T10:10:28;2.03;;;0.73;;
8480;SDS011;4277;51.354;6.740;2022-10-16T10:12:56;2.20;;;0.80;;
8480;SDS011;4277;51.354;6.740;2022-10-16T10:15:23;3.83;;;0.77;;
8480;SDS011;4277;51.354;6.740;2022-10-16T10:17:53;1.80;;;0.67;;
8480;SDS011;4277;51.354;6.740;2022-10-16T10:20:25;1.27;;;0.57;;
8480;SDS011;4277;51.354;6.740;2022-10-16T10:22:53;3.83;;;0.83;;
8480;SDS011;4277;51.354;6.740;2022-10-16T10:28:07;1.33;;;0.77;;
8480;SDS011;4277;51.354;6.740;2022-10-16T10:36:05;1.23;;;0.80;;
8480;SDS011;4277;51.354;6.740;2022-10-16T10:38:41;3.37;;;0.80;;
8480;SDS011;4277;51.354;6.740;2022-10-16T10:46:37;4.13;;;1.00;;
8480;SDS011;4277;51.354;6.740;2022-10-16T10:57:37;2.13;;;0.90;;
8480;SDS011;4277;51.354;6.740;2022-10-16T11:00:23;3.37;;;0.83;;
8480;SDS011;4277;51.354;6.740;2022-10-16T11:03:11;3.90;;;0.77;;
8480;SDS011;4277;51.354;6.740;2022-10-16T11:06:05;2.28;;;0.80;;
8480;SDS011;4277;51.354;6.740;2022-10-16T11:08:45;3.53;;;0.87;;
8480;SDS011;4277;51.354;6.740;2022-10-16T11:11:19;2.10;;;0.60;;
8480;SDS011;4277;51.354;6.740;2022-10-16T11:16:32;4.45;;;1.20;;
8480;SDS011;4277;51.354;6.740;2022-10-16T11:22:11;1.43;;;0.77;;
8480;SDS011;4277;51.354;6.740;2022-10-16T11:27:17;1.30;;;0.60;;
8480;SDS011;4277;51.354;6.740;2022-10-16T11:29:53;3.60;;;1.10;;
8480;SDS011;4277;51.354;6.740;2022-10-16T11:32:27;4.13;;;0.90;;
8480;SDS011;4277;51.354;6.740;2022-10-16T11:34:57;1.88;;;0.57;;
8480;SDS011;4277;51.354;6.740;2022-10-16T11:37:41;2.95;;;0.88;;
8480;SDS011;4277;51.354;6.740;2022-10-16T11:42:54;1.98;;;1.00;;
8480;SDS011;4277;51.354;6.740;2022-10-16T11:45:37;3.05;;;1.10;;
8480;SDS011;4277;51.354;6.740;2022-10-16T11:51:09;3.97;;;1.00;;
8480;SDS011;4277;51.354;6.740;2022-10-16T11:54:14;4.90;;;1.00;;
8480;SDS011;4277;51.354;6.740;2022-10-16T11:57:03;2.70;;;1.20;;
8480;SDS011;4277;51.354;6.740;2022-10-16T12:00:18;2.63;;;0.90;;
8480;SDS011;4277;51.354;6.740;2022-10-16T12:08:28;3.17;;;1.08;;
8480;SDS011;4277;51.354;6.740;2022-10-16T12:11:05;1.67;;;0.68;;
8480;SDS011;4277;51.354;6.740;2022-10-16T12:13:45;1.67;;;0.73;;
8480;SDS011;4277;51.354;6.740;2022-10-16T12:18:43;3.13;;;0.70;;
8480;SDS011;4277;51.354;6.740;2022-10-16T12:21:10;4.35;;;0.68;;
8480;SDS011;4277;51.354;6.740;2022-10-16T12:23:50;2.33;;;0.60;;
8480;SDS011;4277;51.354;6.740;2022-10-16T12:26:24;2.50;;;0.82;;
8480;SDS011;4277;51.354;6.740;2022-10-16T12:28:56;2.10;;;0.82;;
8480;SDS011;4277;51.354;6.740;2022-10-16T12:31:39;2.25;;;0.80;;
8480;SDS011;4277;51.354;6.740;2022-10-16T12:37:24;1.88;;;0.80;;
8480;SDS011;4277;51.354;6.740;2022-10-16T12:40:11;1.55;;;0.82;;
8480;SDS011;4277;51.354;6.740;2022-10-16T12:42:38;3.22;;;1.00;;
8480;SDS011;4277;51.354;6.740;2022-10-16T12:47:50;5.00;;;1.05;;
8480;SDS011;4277;51.354;6.740;2022-10-16T12:52:52;2.58;;;0.80;;
8480;SDS011;4277;51.354;6.740;2022-10-16T12:55:19;2.63;;;0.80;;
8480;SDS011;4277;51.354;6.740;2022-10-16T13:05:59;1.75;;;0.80;;
8480;SDS011;4277;51.354;6.740;2022-10-16T13:08:45;5.13;;;1.10;;
8480;SDS011;4277;51.354;6.740;2022-10-16T13:22:42;4.07;;;1.10;;
8480;SDS011;4277;51.354;6.740;2022-10-16T13:25:22;1.67;;;0.73;;
8480;SDS011;4277;51.354;6.740;2022-10-16T13:28:03;1.60;;;0.70;;
8480;SDS011;4277;51.354;6.740;2022-10-16T13:35:52;2.50;;;0.98;;
8480;SDS011;4277;51.354;6.740;2022-10-16T13:38:23;2.58;;;0.70;;
8480;SDS011;4277;51.354;6.740;2022-10-16T13:40:57;2.38;;;0.60;;
8480;SDS011;4277;51.354;6.740;2022-10-16T13:43:35;2.25;;;0.70;;
8480;SDS011;4277;51.354;6.740;2022-10-16T13:46:14;0.90;;;0.43;;
8480;SDS011;4277;51.354;6.740;2022-10-16T13:48:41;3.10;;;0.45;;
8480;SDS011;4277;51.354;6.740;2022-10-16T13:51:14;3.78;;;0.60;;
8480;SDS011;4277;51.354;6.740;2022-10-16T13:53:42;2.15;;;0.80;;
8480;SDS011;4277;51.354;6.740;2022-10-16T13:56:12;1.23;;;0.70;;
8480;SDS011;4277;51.354;6.740;2022-10-16T13:58:40;8.23;;;2.88;;
8480;SDS011;4277;51.354;6.740;2022-10-16T14:01:16;3.35;;;1.17;;
8480;SDS011;4277;51.354;6.740;2022-10-16T14:03:44;2.30;;;1.10;;
8480;SDS011;4277;51.354;6.740;2022-10-16T14:06:15;1.98;;;1.00;;
8480;SDS011;4277;51.354;6.740;2022-10-16T14:08:48;1.88;;;0.70;;
8480;SDS011;4277;51.354;6.740;2022-10-16T14:11:21;3.55;;;0.70;;
8480;SDS011;4277;51.354;6.740;2022-10-16T14:13:48;7.13;;;1.40;;
8480;SDS011;4277;51.354;6.740;2022-10-16T14:16:23;2.95;;;0.90;;
8480;SDS011;4277;51.354;6.740;2022-10-16T14:19:02;2.90;;;1.05;;
8480;SDS011;4277;51.354;6.740;2022-10-16T14:21:34;2.97;;;1.35;;
8480;SDS011;4277;51.354;6.740;2022-10-16T14:24:11;1.90;;;0.90;;
8480;SDS011;4277;51.354;6.740;2022-10-16T14:26:44;3.15;;;0.70;;
8480;SDS011;4277;51.354;6.740;2022-10-16T14:29:14;2.70;;;0.70;;
8480;SDS011;4277;51.354;6.740;2022-10-16T14:31:42;4.50;;;0.77;;
8480;SDS011;4277;51.354;6.740;2022-10-16T14:34:27;2.83;;;0.70;;
8480;SDS011;4277;51.354;6.740;2022-10-16T14:37:02;2.53;;;0.80;;
8480;SDS011;4277;51.354;6.740;2022-10-16T14:39:33;3.92;;;0.80;;
8480;SDS011;4277;51.354;6.740;2022-10-16T14:42:00;4.75;;;1.00;;
8480;SDS011;4277;51.354;6.740;2022-10-16T14:44:31;2.70;;;0.85;;
8480;SDS011;4277;51.354;6.740;2022-10-16T14:46:58;5.13;;;1.00;;
8480;SDS011;4277;51.354;6.740;2022-10-16T14:49:32;3.35;;;0.73;;
8480;SDS011;4277;51.354;6.740;2022-10-16T14:51:57;6.47;;;0.70;;
8480;SDS011;4277;51.354;6.740;2022-10-16T14:54:23;3.97;;;0.85;;
8480;SDS011;4277;51.354;6.740;2022-10-16T14:56:52;1.05;;;0.70;;
8480;SDS011;4277;51.354;6.740;2022-10-16T14:59:39;6.95;;;1.05;;
8480;SDS011;4277;51.354;6.740;2022-10-16T15:02:30;1.90;;;0.73;;
8480;SDS011;4277;51.354;6.740;2022-10-16T15:07:44;2.47;;;0.70;;
8480;SDS011;4277;51.354;6.740;2022-10-16T15:10:10;1.23;;;0.80;;
8480;SDS011;4277;51.354;6.740;2022-10-16T15:12:37;3.05;;;0.80;;
8480;SDS011;4277;51.354;6.740;2022-10-16T15:15:10;0.80;;;0.57;;
8480;SDS011;4277;51.354;6.740;2022-10-16T15:17:50;3.20;;;0.73;;
8480;SDS011;4277;51.354;6.740;2022-10-16T15:20:18;2.55;;;0.60;;
8480;SDS011;4277;51.354;6.740;2022-10-16T15:22:44;1.67;;;0.60;;
8480;SDS011;4277;51.354;6.740;2022-10-16T15:25:31;3.55;;;0.75;;
8480;SDS011;4277;51.354;6.740;2022-10-16T15:28:04;2.50;;;0.68;;
8480;SDS011;4277;51.354;6.740;2022-10-16T15:30:31;1.67;;;0.88;;
8480;SDS011;4277;51.354;6.740;2022-10-16T15:32:57;1.85;;;0.70;;
8480;SDS011;4277;51.354;6.740;2022-10-16T15:35:23;2.30;;;0.65;;
8480;SDS011;4277;51.354;6.740;2022-10-16T15:37:49;1.48;;;0.60;;
8480;SDS011;4277;51.354;6.740;2022-10-16T15:40:15;0.75;;;0.60;;
8480;SDS011;4277;51.354;6.740;2022-10-16T15:42:43;1.73;;;0.63;;
8480;SDS011;4277;51.354;6.740;2022-10-16T15:45:09;1.90;;;0.80;;
8480;SDS011;4277;51.354;6.740;2022-10-16T15:47:36;1.53;;;0.70;;
8480;SDS011;4277;51.354;6.740;2022-10-16T15:50:02;1.10;;;0.70;;
8480;SDS011;4277;51.354;6.740;2022-10-16T15:52:28;1.35;;;0.60;;
8480;SDS011;4277;51.354;6.740;2022-10-16T15:54:54;3.60;;;0.90;;
8480;SDS011;4277;51.354;6.740;2022-10-16T15:57:20;6.30;;;1.00;;
8480;SDS011;4277;51.354;6.740;2022-10-16T15:59:45;3.00;;;0.67;;
8480;SDS011;4277;51.354;6.740;2022-10-16T16:02:11;1.65;;;0.70;;
8480;SDS011;4277;51.354;6.740;2022-10-16T16:04:36;1.77;;;0.85;;
8480;SDS011;4277;51.354;6.740;2022-10-16T16:07:02;1.70;;;0.50;;
8480;SDS011;4277;51.354;6.740;2022-10-16T16:09:30;1.67;;;0.70;;
8480;SDS011;4277;51.354;6.740;2022-10-16T16:11:56;2.95;;;0.93;;
8480;SDS011;4277;51.354;6.740;2022-10-16T16:14:24;2.15;;;0.77;;
8480;SDS011;4277;51.354;6.740;2022-10-16T16:16:51;4.27;;;1.00;;
8480;SDS011;4277;51.354;6.740;2022-10-16T16:19:16;4.80;;;0.93;;
8480;SDS011;4277;51.354;6.740;2022-10-16T16:21:45;4.83;;;1.40;;
8480;SDS011;4277;51.354;6.740;2022-10-16T16:24:11;3.17;;;0.90;;
8480;SDS011;4277;51.354;6.740;2022-10-16T16:26:37;3.97;;;1.23;;
8480;SDS011;4277;51.354;6.740;2022-10-16T16:29:04;3.43;;;0.90;;
8480;SDS011;4277;51.354;6.740;2022-10-16T16:31:30;6.33;;;1.17;;
8480;SDS011;4277;51.354;6.740;2022-10-16T16:33:57;3.13;;;1.13;;
8480;SDS011;4277;51.354;6.740;2022-10-16T16:36:23;4.80;;;1.10;;
8480;SDS011;4277;51.354;6.740;2022-10-16T16:38:50;6.10;;;1.40;;
8480;SDS011;4277;51.354;6.740;2022-10-16T16:41:20;4.47;;;1.60;;
8480;SDS011;4277;51.354;6.740;2022-10-16T16:43:47;5.13;;;1.37;;
8480;SDS011;4277;51.354;6.740;2022-10-16T16:46:13;6.88;;;1.50;;
8480;SDS011;4277;51.354;6.740;2022-10-16T16:48:40;6.60;;;1.30;;
8480;SDS011;4277;51.354;6.740;2022-10-16T16:51:06;6.73;;;1.87;;
8480;SDS011;4277;51.354;6.740;2022-10-16T16:53:35;7.97;;;2.13;;
8480;SDS011;4277;51.354;6.740;2022-10-16T16:56:04;4.77;;;2.23;;
8480;SDS011;4277;51.354;6.740;2022-10-16T16:58:30;9.20;;;2.67;;
8480;SDS011;4277;51.354;6.740;2022-10-16T17:00:57;6.20;;;2.60;;
8480;SDS011;4277;51.354;6.740;2022-10-16T17:03:30;7.27;;;2.33;;
8480;SDS011;4277;51.354;6.740;2022-10-16T17:05:57;3.67;;;1.80;;
8480;SDS011;4277;51.354;6.740;2022-10-16T17:08:24;5.93;;;1.53;;
8480;SDS011;4277;51.354;6.740;2022-10-16T17:10:50;5.10;;;1.37;;
8480;SDS011;4277;51.354;6.740;2022-10-16T17:13:19;2.17;;;1.33;;
8480;SDS011;4277;51.354;6.740;2022-10-16T17:15:46;1.63;;;1.20;;
8480;SDS011;4277;51.354;6.740;2022-10-16T17:18:13;6.57;;;1.70;;
8480;SDS011;4277;51.354;6.740;2022-10-16T17:20:39;5.40;;;1.60;;